Aeroporto :
LOGIN :

Iscrizione | Disclaimer

   EN    FR    IT 

 










Sommario :    VFR   VFR Marginale   IFR   IFR Intensivo   IFR Molto Intensivo
Visibilità : 
Base nubi : 
>= 8 km
>= 3000ft
5 / 8 km
1000 / 3000 ft
1500m / 5 km
500 / 1000 ft
800 / 1500m
200 / 500 ft
< 800m
< 200 ft
Simboli :   Temporali  Nebbia  Neve Forte  Precipitazioni Forti  Vento > 20 kt
SIGMETs :   Varie  Temporali  Ghiacco  Turbolenza  Onda orograficha  Ceneri Vulcaniche






- Altitudine del aeroporto : 348 ft
- Codice IATA : STN


EGSS - London Stansted

ULTIMO METAR :
  • 210920Z AUTO 33008KT 9999 OVC036 19/13 Q1010

METARs OBSOLETI :
  • 210850Z AUTO 33008KT 290V010 9999 FEW018 BKN035 18/14 Q1010
  • 210820Z AUTO 32008KT 270V350 9999 SCT016 BKN037 17/14 Q1010
  • 210750Z AUTO 31009KT 280V350 9999 BKN013 BKN033 17/14 Q1009
  • 210720Z AUTO 32007KT 290V360 9999 SCT012 OVC028 17/15 Q1009
  • 210650Z AUTO 32007KT 290V350 9999 FEW005 SCT009 OVC024 16/15 Q1009
  • 210620Z AUTO 29007KT 9999 OVC004 16/16 Q1008
  • 210550Z AUTO 31005KT 9999 -RA BKN006 OVC016 17/16 Q1008
  • 210520Z AUTO 30005KT 260V330 9000 -RA BKN005 BKN009 OVC013 17/16 Q1008

TAF AMD TAF EGSS
Valido dal 21 a 07 ore il 22 a 12 ore UTC


210753Z 2107/2212 29010KT 9999 BKN010
BECMG 2107/2110 SCT045
BECMG 2200/2203 20010KT
TEMPO 2205/2210 BKN010
PROB30
TEMPO 2205/2210 6000 -DZ
TEMPO 2210/2212 6000 SHRA
ATIS : +44 1279 669 325



MetMap, La meteo Aeronautica in un colpo d'occhio ! - Copyright ORBIFLY Dicembre 2007 - Disclaimer

ORBIFLY MET'MAP TEAM :

Programmazione e sviluppo : Alexandra Zaïnal
Concezione : Baudouin d'Aumeries
Supporto tecnico e logistico : Manuel Goepfert
Aiuto : Marc-Olivier Méhu
Aiuto per la traduzione : Arnaldo La Scala




FONTI E CREDITI :

   NOAA